createdAt,value
2022-11-16T00:01:49.579Z,12.30
2022-11-16T00:05:08.783Z,12.30
2022-11-16T00:08:05.970Z,12.00
2022-11-16T00:11:06.975Z,12.10
2022-11-16T00:13:55.607Z,12.20
2022-11-16T00:16:44.539Z,12.30
2022-11-16T00:19:33.042Z,12.40
2022-11-16T00:22:21.574Z,12.40
2022-11-16T00:25:12.862Z,12.40
2022-11-16T00:28:01.199Z,12.30
2022-11-16T00:31:02.516Z,12.20
2022-11-16T00:33:52.645Z,12.20
2022-11-16T00:36:40.923Z,12.20
2022-11-16T00:39:29.043Z,12.10
2022-11-16T00:42:19.868Z,11.90
2022-11-16T00:45:08.730Z,11.80
2022-11-16T00:48:00.455Z,11.70
2022-11-16T00:50:49.292Z,11.50
2022-11-16T00:53:39.299Z,11.40
2022-11-16T00:56:27.541Z,11.40
2022-11-16T00:59:15.524Z,11.60
2022-11-16T01:02:03.666Z,11.70
2022-11-16T01:04:51.810Z,11.60
2022-11-16T01:07:41.286Z,11.50
2022-11-16T01:10:30.334Z,11.30
2022-11-16T01:13:18.511Z,11.40
2022-11-16T01:16:06.812Z,11.30
2022-11-16T01:18:55.698Z,11.20
2022-11-16T01:21:43.632Z,10.90
2022-11-16T01:24:32.127Z,10.80
2022-11-16T01:27:20.065Z,10.60
2022-11-16T01:30:11.821Z,10.60
2022-11-16T01:32:59.893Z,10.70
2022-11-16T01:35:47.782Z,10.60
2022-11-16T01:38:36.226Z,10.70
2022-11-16T01:41:26.228Z,10.80
2022-11-16T01:44:32.510Z,10.70
2022-11-16T01:47:20.487Z,10.60
2022-11-16T01:50:23.810Z,10.60
2022-11-16T01:53:14.786Z,10.50
2022-11-16T01:56:02.896Z,10.60
2022-11-16T01:58:51.533Z,10.50
2022-11-16T02:01:39.761Z,10.40
2022-11-16T02:04:28.188Z,10.40
2022-11-16T02:08:12.354Z,10.40
2022-11-16T02:11:27.646Z,10.40
2022-11-16T02:14:35.455Z,10.60
2022-11-16T02:17:41.766Z,10.60
2022-11-16T02:21:06.901Z,10.60
2022-11-16T02:24:20.432Z,10.60
2022-11-16T02:27:36.148Z,10.60
2022-11-16T02:30:24.371Z,10.60
2022-11-16T02:33:21.310Z,10.60
2022-11-16T02:36:14.613Z,10.60
2022-11-16T02:39:10.308Z,10.50
2022-11-16T02:41:59.850Z,10.50
2022-11-16T02:44:51.856Z,10.70
2022-11-16T02:47:41.972Z,10.60
2022-11-16T02:50:31.184Z,10.50
2022-11-16T02:53:22.223Z,10.50
2022-11-16T02:56:13.775Z,10.40
2022-11-16T02:59:02.085Z,10.30
2022-11-16T03:02:20.270Z,10.30
2022-11-16T03:05:15.877Z,10.30
2022-11-16T03:08:20.031Z,10.20
2022-11-16T03:11:28.879Z,10.20
2022-11-16T03:14:21.039Z,10.10
2022-11-16T03:17:17.856Z,10.20
2022-11-16T03:20:14.210Z,10.30
2022-11-16T03:23:07.591Z,10.30
2022-11-16T03:25:58.321Z,10.20
2022-11-16T03:29:13.431Z,10.20
2022-11-16T03:32:21.214Z,10.20
2022-11-16T03:35:48.627Z,10.20
2022-11-16T03:38:39.970Z,10.10
2022-11-16T03:41:31.115Z,10.10
2022-11-16T03:44:20.262Z,10.20
2022-11-16T03:47:08.152Z,10.40
2022-11-16T03:49:56.001Z,10.60
2022-11-16T03:52:43.962Z,10.50
2022-11-16T03:55:31.999Z,10.60
2022-11-16T03:58:20.019Z,10.40
2022-11-16T04:01:08.517Z,10.30
2022-11-16T04:03:56.393Z,10.30
2022-11-16T04:07:02.886Z,10.10
2022-11-16T04:10:10.001Z,10.10
2022-11-16T04:13:18.377Z,10.20
2022-11-16T04:16:28.000Z,10.20
2022-11-16T04:19:34.423Z,10.10
2022-11-16T04:22:47.419Z,10.30
2022-11-16T04:25:39.328Z,10.40
2022-11-16T04:28:32.283Z,10.40
2022-11-16T04:32:00.624Z,10.40
2022-11-16T04:35:07.250Z,10.40
2022-11-16T04:37:57.597Z,10.40
2022-11-16T04:40:45.499Z,10.30
2022-11-16T04:43:33.555Z,10.30
2022-11-16T04:46:39.899Z,10.40
2022-11-16T04:49:27.925Z,10.40
2022-11-16T04:52:16.311Z,10.50
2022-11-16T04:55:04.833Z,10.40
2022-11-16T04:57:53.036Z,10.50
2022-11-16T05:00:41.112Z,10.50
2022-11-16T05:03:28.985Z,10.50
2022-11-16T05:06:17.531Z,10.50
2022-11-16T05:09:05.899Z,10.60
2022-11-16T05:11:53.794Z,10.60
2022-11-16T05:14:42.731Z,10.60
2022-11-16T05:17:31.043Z,10.60
2022-11-16T05:20:37.660Z,10.60
2022-11-16T05:23:44.324Z,10.50
2022-11-16T05:26:32.166Z,10.40
2022-11-16T05:29:20.083Z,10.60
2022-11-16T05:32:09.891Z,10.40
2022-11-16T05:34:58.103Z,10.40
2022-11-16T05:37:45.885Z,10.40
2022-11-16T05:40:34.185Z,10.40
2022-11-16T05:43:22.273Z,10.40
2022-11-16T05:46:10.233Z,10.40
2022-11-16T05:49:01.489Z,10.40
2022-11-16T05:51:49.699Z,10.40
2022-11-16T05:54:37.613Z,10.40
2022-11-16T05:57:25.726Z,10.40
2022-11-16T06:00:17.336Z,10.40
2022-11-16T06:03:05.538Z,10.40
2022-11-16T06:05:56.325Z,10.40
2022-11-16T06:08:44.333Z,10.50
2022-11-16T06:11:36.155Z,10.40
2022-11-16T06:14:24.568Z,10.50
2022-11-16T06:17:14.612Z,10.50
2022-11-16T06:20:03.529Z,10.40
2022-11-16T06:22:51.385Z,10.40
2022-11-16T06:25:39.912Z,10.50
2022-11-16T06:28:28.790Z,10.50
2022-11-16T06:31:16.710Z,10.50
2022-11-16T06:34:17.330Z,10.40
2022-11-16T06:37:07.521Z,10.40
2022-11-16T06:39:55.587Z,10.30
2022-11-16T06:42:47.185Z,10.40
2022-11-16T06:46:08.020Z,10.40
2022-11-16T06:49:09.818Z,10.30
2022-11-16T06:52:03.605Z,10.30
2022-11-16T06:54:57.214Z,10.40
2022-11-16T06:57:50.521Z,10.40
2022-11-16T07:00:38.868Z,10.40
2022-11-16T07:03:31.503Z,10.40
2022-11-16T07:06:22.016Z,10.40
2022-11-16T07:09:28.194Z,10.50
2022-11-16T07:12:28.936Z,10.40
2022-11-16T07:15:26.212Z,10.40
2022-11-16T07:18:14.922Z,10.40
2022-11-16T07:21:24.384Z,10.40
2022-11-16T07:27:15.503Z,10.40
2022-11-16T07:30:17.247Z,10.40
2022-11-16T07:33:05.471Z,10.40
2022-11-16T07:36:26.656Z,10.50
2022-11-16T07:39:22.638Z,10.60
2022-11-16T07:42:12.872Z,10.50
2022-11-16T07:45:01.194Z,10.60
2022-11-16T07:48:06.375Z,10.60
2022-11-16T07:51:39.850Z,10.70
2022-11-16T08:05:59.677Z,11.10
2022-11-16T08:09:22.773Z,11.10
2022-11-16T08:20:45.274Z,11.20
2022-11-16T08:24:33.886Z,11.40
2022-11-16T08:28:29.879Z,11.30
2022-11-16T08:52:25.486Z,11.50
2022-11-16T13:36:59.516Z,12.30
2022-11-16T13:47:26.840Z,12.00
2022-11-16T18:18:06.352Z,12.40
2022-11-16T18:21:30.756Z,12.30
